Time;durP1;ratioP1;P1;durP2;ratioP2;P2;SDS_P1;SDS_P2;PMS_P1;PMS_P2;Temp;Humidity;BMP_temperature;BMP_pressure;BME280_temperature;BME280_humidity;BME280_pressure;Samples;Min_cycle;Max_cycle;Signal;HPM_P1;HPM_P2
2023/09/25 00:00:53;;;;;;;;;14.50;14.50;;;;;20.60;100.00;101398.25;2110132;27;46802;-59
2023/09/25 00:01:53;;;;;;;;;8.00;8.00;;;;;20.59;100.00;101397.38;2111731;27;46442;-60
2023/09/25 00:02:53;;;;;;;;;7.33;7.33;;;;;20.60;100.00;101403.66;2109664;27;46212;-59
2023/09/25 00:03:54;;;;;;;;;7.33;7.00;;;;;20.60;100.00;101400.97;2111760;27;46343;-59
2023/09/25 00:04:54;;;;;;;;;5.00;5.00;;;;;20.65;100.00;101404.28;2120639;27;46212;-60
2023/09/25 00:05:54;;;;;;;;;8.00;6.00;;;;;20.66;100.00;101404.19;2112896;27;46410;-61
2023/09/25 00:06:55;;;;;;;;;4.67;4.00;;;;;20.66;100.00;101401.50;2114271;27;46762;-59
2023/09/25 00:07:56;;;;;;;;;6.67;6.00;;;;;20.67;100.00;101400.53;2114736;27;46594;-62
2023/09/25 00:08:56;;;;;;;;;5.00;5.00;;;;;20.67;100.00;101405.94;2114599;27;46672;-59
2023/09/25 00:09:56;;;;;;;;;5.33;5.33;;;;;20.68;100.00;101406.78;2114493;27;46627;-60
2023/09/25 00:10:57;;;;;;;;;4.67;3.00;;;;;20.67;100.00;101416.72;2122734;27;46230;-60
2023/09/25 00:11:57;;;;;;;;;6.67;5.67;;;;;20.63;100.00;101415.16;2116727;27;46255;-60
2023/09/25 00:12:59;;;;;;;;;6.00;5.00;;;;;20.63;100.00;101412.44;2114313;27;46205;-61
2023/09/25 00:13:59;;;;;;;;;5.50;4.00;;;;;20.62;100.00;101415.22;2113504;27;46435;-61
2023/09/25 00:14:59;;;;;;;;;6.33;6.33;;;;;20.61;100.00;101417.06;2114407;27;46228;-60
2023/09/25 00:16:00;;;;;;;;;5.00;5.00;;;;;20.65;100.00;101409.66;2114522;27;46417;-60
2023/09/25 00:17:00;;;;;;;;;4.33;4.33;;;;;20.65;100.00;101420.44;2110015;27;46397;-60
2023/09/25 00:18:01;;;;;;;;;4.00;4.00;;;;;20.56;100.00;101417.28;2107559;27;46478;-60
2023/09/25 00:19:01;;;;;;;;;3.00;3.00;;;;;20.57;100.00;101408.22;2114226;27;46794;-59
2023/09/25 00:20:04;;;;;;;;;4.33;4.00;;;;;20.54;100.00;101408.41;2113693;27;45893;-58
2023/09/25 00:21:04;;;;;;;;;4.00;4.00;;;;;20.53;100.00;101413.88;2114781;27;46370;-59
2023/09/25 00:22:04;;;;;;;;;3.67;3.67;;;;;20.52;100.00;101407.59;2108164;27;46817;-59
2023/09/25 00:23:05;;;;;;;;;3.00;3.00;;;;;20.50;100.00;101409.50;2098359;28;46724;-59
2023/09/25 00:24:06;;;;;;;;;3.00;3.00;;;;;20.54;100.00;101404.81;2105329;28;45660;-59
2023/09/25 00:25:07;;;;;;;;;14.60;14.00;;;;;20.51;100.00;101413.94;2114436;27;46883;-59
2023/09/25 00:26:08;;;;;;;;;17.80;16.40;;;;;20.49;100.00;101417.69;2114587;27;46901;-59
2023/09/25 00:27:09;;;;;;;;;24.60;23.20;;;;;20.48;100.00;101416.81;2106036;28;46864;-57
2023/09/25 00:28:09;;;;;;;;;14.25;13.75;;;;;20.48;100.00;101416.81;2113265;27;46746;-59
2023/09/25 00:29:11;;;;;;;;;13.75;13.25;;;;;20.46;100.00;101413.34;2114829;27;46816;-60
2023/09/25 00:30:12;;;;;;;;;17.20;15.80;;;;;20.48;100.00;101419.50;2114645;27;46353;-59
2023/09/25 00:31:13;;;;;;;;;12.00;10.20;;;;;20.46;100.00;101409.78;2112051;27;46312;-59
2023/09/25 00:32:13;;;;;;;;;16.75;14.25;;;;;20.48;100.00;101421.34;2105964;27;46649;-59
2023/09/25 00:33:13;;;;;;;;;12.75;12.50;;;;;20.48;100.00;101424.03;2114800;27;46683;-60
2023/09/25 00:34:14;;;;;;;;;14.00;13.00;;;;;20.46;100.00;101418.72;2118841;27;46563;-59
2023/09/25 00:35:15;;;;;;;;;11.00;9.50;;;;;20.46;100.00;101420.56;2114071;27;46218;-60
2023/09/25 00:36:15;;;;;;;;;12.00;8.25;;;;;20.45;100.00;101416.09;2114767;27;46658;-60
2023/09/25 00:37:15;;;;;;;;;8.50;8.50;;;;;20.44;100.00;101422.44;2113951;27;45893;-59
2023/09/25 00:38:16;;;;;;;;;13.75;13.75;;;;;20.44;100.00;101417.91;2104473;28;46388;-60
2023/09/25 00:39:16;;;;;;;;;9.25;9.25;;;;;20.43;100.00;101418.00;2103596;28;46329;-58
2023/09/25 00:40:24;;;;;;;;;9.33;7.00;;;;;20.43;100.00;101413.47;2113671;27;46474;-60
2023/09/25 00:41:24;;;;;;;;;9.60;7.60;;;;;20.42;100.00;101425.22;2114122;27;46920;-60
2023/09/25 00:42:26;;;;;;;;;5.33;4.67;;;;;20.42;100.00;101416.25;2113421;27;46423;-60
2023/09/25 00:43:27;;;;;;;;;6.20;6.20;;;;;20.42;100.00;101405.47;2114671;27;46122;-61
2023/09/25 00:44:27;;;;;;;;;10.00;10.00;;;;;20.42;100.00;101413.56;2110321;27;46681;-61
2023/09/25 00:45:28;;;;;;;;;15.50;15.50;;;;;20.40;100.00;101408.22;2105795;28;46795;-60
2023/09/25 00:46:30;;;;;;;;;22.20;20.80;;;;;20.41;100.00;101406.38;2114215;27;46886;-59
2023/09/25 00:47:30;;;;;;;;;20.00;17.20;;;;;20.41;100.00;101407.25;2113715;27;46454;-60
2023/09/25 00:48:31;;;;;;;;;14.25;11.50;;;;;20.41;100.00;101409.94;2114726;27;46939;-60
2023/09/25 00:49:32;;;;;;;;;6.50;6.25;;;;;20.56;100.00;101408.31;2114154;27;46634;-60
2023/09/25 00:50:34;;;;;;;;;12.80;11.40;;;;;20.56;100.00;101408.31;2102659;27;46309;-60
2023/09/25 00:51:35;;;;;;;;;8.00;8.00;;;;;20.56;100.00;101408.31;2108729;27;45822;-58
2023/09/25 00:52:39;;;;;;;;;9.00;8.00;;;;;20.58;100.00;101403.69;2111309;27;46924;-61
2023/09/25 00:53:41;;;;;;;;;7.60;6.80;;;;;20.58;100.00;101398.31;2105631;27;46642;-60
2023/09/25 00:54:42;;;;;;;;;6.00;6.00;;;;;20.60;100.00;101406.34;2105282;27;47017;-60
2023/09/25 00:55:42;;;;;;;;;11.80;11.80;;;;;20.60;100.00;101406.34;2113021;27;46121;-60
2023/09/25 00:56:43;;;;;;;;;7.50;6.50;;;;;20.59;100.00;101402.78;2115161;27;46534;-60
2023/09/25 00:57:48;;;;;;;;;9.50;9.50;;;;;20.60;100.00;101395.56;2106026;27;46266;-58
2023/09/25 00:58:49;;;;;;;;;10.00;9.00;;;;;20.58;100.00;101409.09;2114503;27;46685;-57
2023/09/25 00:59:50;;;;;;;;;19.00;18.60;;;;;20.57;100.00;101400.13;2114301;27;47175;-60
2023/09/25 01:00:52;;;;;;;;;8.80;8.00;;;;;20.57;100.00;101402.84;2114372;27;46126;-60
2023/09/25 01:01:53;;;;;;;;;6.60;6.60;;;;;20.56;100.00;101395.69;2114371;27;46573;-58
2023/09/25 01:02:53;;;;;;;;;8.00;7.75;;;;;20.54;100.00;101402.13;2115134;27;46510;-60
2023/09/25 01:03:53;;;;;;;;;9.00;7.75;;;;;20.53;100.00;101403.97;2111773;27;46808;-58
2023/09/25 01:04:54;;;;;;;;;6.50;5.25;;;;;20.52;100.00;101404.03;2108607;27;46604;-60
2023/09/25 01:05:54;;;;;;;;;7.00;7.00;;;;;20.51;100.00;101399.59;2107217;27;46732;-59
2023/09/25 01:06:54;;;;;;;;;7.00;7.00;;;;;20.45;100.00;101394.50;2113048;27;46722;-58
2023/09/25 01:07:55;;;;;;;;;11.50;11.50;;;;;20.49;100.00;101401.50;2114292;27;46206;-58
2023/09/25 01:08:55;;;;;;;;;9.25;8.00;;;;;20.50;100.00;101400.56;2105283;28;46895;-60
2023/09/25 01:10:16;;;;;;;;;5.50;5.00;;;;;20.52;100.00;101406.75;2104378;27;46397;-59
2023/09/25 01:11:16;;;;;;;;;4.50;4.25;;;;;20.48;100.00;101408.72;2114104;27;47038;-61
2023/09/25 01:12:18;;;;;;;;;3.75;3.75;;;;;20.47;100.00;101395.34;2114887;27;46604;-59
2023/09/25 01:13:19;;;;;;;;;3.00;3.00;;;;;20.46;100.00;101390.91;2114164;27;47048;-58
2023/09/25 01:14:19;;;;;;;;;6.25;6.25;;;;;20.36;100.00;101397.69;2113667;27;46696;-59
2023/09/25 01:15:19;;;;;;;;;4.50;4.50;;;;;20.33;100.00;101397.81;2113363;27;46642;-59
2023/09/25 01:16:21;;;;;;;;;3.00;3.00;;;;;20.33;100.00;101387.94;2113604;27;46891;-59
2023/09/25 01:17:22;;;;;;;;;4.00;4.00;;;;;20.29;100.00;101394.41;2114461;27;46239;-60
2023/09/25 01:18:22;;;;;;;;;3.67;3.67;;;;;20.37;100.00;101385.94;2114283;27;46679;-60
2023/09/25 01:19:23;;;;;;;;;5.00;5.00;;;;;20.33;100.00;101393.31;2114042;27;46544;-59
2023/09/25 01:20:24;;;;;;;;;3.33;3.33;;;;;20.33;100.00;101385.22;2114295;27;46897;-59
2023/09/25 01:21:25;;;;;;;;;6.50;6.50;;;;;20.35;100.00;101393.22;2113720;27;46284;-60
2023/09/25 01:22:26;;;;;;;;;3.20;3.20;;;;;20.31;100.00;101386.25;2113792;27;47160;-58
2023/09/25 01:23:26;;;;;;;;;3.00;3.00;;;;;20.31;100.00;101394.31;2108837;27;46245;-59
2023/09/25 01:24:27;;;;;;;;;3.25;3.25;;;;;20.31;100.00;101388.94;2111632;27;45819;-58
2023/09/25 01:25:27;;;;;;;;;3.50;2.75;;;;;20.32;100.00;101390.69;2113146;27;46499;-58
2023/09/25 01:26:28;;;;;;;;;2.00;2.00;;;;;20.32;100.00;101387.97;2113611;27;46505;-58
2023/09/25 01:27:29;;;;;;;;;4.80;3.80;;;;;20.40;100.00;101392.03;2114168;27;46766;-58
2023/09/25 01:28:29;;;;;;;;;5.50;5.50;;;;;20.42;100.00;101382.06;2114049;27;46612;-59
2023/09/25 01:29:30;;;;;;;;;4.00;4.00;;;;;20.45;100.00;101386.41;2114067;27;46382;-58
2023/09/25 01:30:31;;;;;;;;;8.25;7.25;;;;;20.46;100.00;101396.28;2114230;27;46311;-59
2023/09/25 01:31:31;;;;;;;;;8.00;6.00;;;;;20.46;100.00;101391.75;2113947;27;46665;-60
2023/09/25 01:32:31;;;;;;;;;8.75;6.25;;;;;20.48;100.00;101394.38;2104077;28;46459;-58
2023/09/25 01:33:32;;;;;;;;;2.25;2.25;;;;;20.47;100.00;101392.63;2106982;27;45775;-59
2023/09/25 01:34:34;;;;;;;;;5.00;5.00;;;;;20.44;100.00;101384.69;2114494;27;46612;-57
2023/09/25 01:35:34;;;;;;;;;2.00;2.00;;;;;20.46;100.00;101388.19;2113754;27;47007;-58
2023/09/25 01:36:34;;;;;;;;;4.00;2.67;;;;;20.46;100.00;101393.59;2114265;27;46474;-59
2023/09/25 01:37:35;;;;;;;;;2.00;2.00;;;;;20.45;100.00;101390.00;2103907;28;45784;-58
2023/09/25 01:38:35;;;;;;;;;2.00;2.00;;;;;20.45;100.00;101389.13;2103730;28;46181;-59
2023/09/25 01:39:36;;;;;;;;;2.33;2.00;;;;;20.45;100.00;101389.13;2114100;27;46411;-58
2023/09/25 01:40:36;;;;;;;;;1.67;1.67;;;;;20.44;100.00;101393.63;2110392;27;46197;-59
2023/09/25 01:41:37;;;;;;;;;2.67;2.67;;;;;20.42;100.00;101395.56;2110923;27;46484;-58
2023/09/25 01:42:37;;;;;;;;;0.00;0.00;;;;;20.32;100.00;101388.84;2113551;27;46577;-60
2023/09/25 01:43:37;;;;;;;;;1.00;1.00;;;;;20.29;100.00;101389.88;2113903;27;46586;-60
2023/09/25 01:44:38;;;;;;;;;1.33;1.00;;;;;20.30;100.00;101385.38;2114459;27;46366;-59
2023/09/25 01:45:38;;;;;;;;;2.67;1.67;;;;;20.38;100.00;101391.25;2113984;27;46212;-58
2023/09/25 01:46:40;;;;;;;;;3.67;3.67;;;;;20.27;100.00;101389.09;2113878;27;46289;-59
2023/09/25 01:47:42;;;;;;;;;2.00;2.00;;;;;20.25;100.00;101395.53;2115195;27;46592;-59
2023/09/25 01:48:42;;;;;;;;;1.75;1.75;;;;;20.24;100.00;101391.97;2111357;27;45956;-58
2023/09/25 01:49:43;;;;;;;;;2.67;2.67;;;;;20.24;100.00;101391.97;2111121;27;46507;-58
2023/09/25 01:50:43;;;;;;;;;3.25;3.25;;;;;20.24;100.00;101389.25;2099493;28;46871;-58
2023/09/25 01:51:44;;;;;;;;;3.00;3.00;;;;;20.24;100.00;101383.88;2097020;28;46008;-59
2023/09/25 01:52:47;;;;;;;;;2.00;1.00;;;;;20.27;100.00;101385.53;2113377;27;45532;-59
2023/09/25 01:53:50;;;;;;;;;3.00;2.75;;;;;20.28;100.00;101381.88;2108901;27;46404;-58
2023/09/25 01:54:50;;;;;;;;;1.75;1.75;;;;;20.27;100.00;101383.72;2105845;27;46661;-58
2023/09/25 01:55:51;;;;;;;;;4.33;2.67;;;;;20.29;100.00;101381.78;2116775;27;46807;-58
2023/09/25 01:56:51;;;;;;;;;3.00;3.00;;;;;20.35;100.00;101383.31;2109600;27;46609;-59
2023/09/25 01:57:51;;;;;;;;;1.00;1.00;;;;;20.39;100.00;101382.19;2110019;27;46618;-58
2023/09/25 01:58:52;;;;;;;;;3.00;3.00;;;;;20.34;100.00;101381.59;2111043;27;46677;-59
2023/09/25 01:59:52;;;;;;;;;2.00;2.00;;;;;20.32;100.00;101382.59;2113902;27;46531;-59
2023/09/25 02:00:52;;;;;;;;;3.00;1.67;;;;;20.29;100.00;101376.41;2112150;27;46648;-62
2023/09/25 02:01:53;;;;;;;;;3.00;2.33;;;;;20.28;100.00;101377.38;2111972;27;47191;-61
2023/09/25 02:02:53;;;;;;;;;1.67;1.67;;;;;20.28;100.00;101368.41;2105444;27;47578;-61
2023/09/25 02:03:54;;;;;;;;;3.67;2.33;;;;;20.28;100.00;101371.09;2093484;28;47917;-59
2023/09/25 02:04:54;;;;;;;;;5.25;5.00;;;;;20.28;100.00;101377.38;2095787;28;46564;-59
2023/09/25 02:05:57;;;;;;;;;5.25;3.00;;;;;20.28;100.00;101380.06;2094008;28;46543;-59
2023/09/25 02:06:57;;;;;;;;;1.00;1.00;;;;;20.27;100.00;101378.31;2094049;28;46975;-58
2023/09/25 02:07:58;;;;;;;;;2.33;2.33;;;;;20.27;100.00;101380.13;2094297;28;46798;-59
2023/09/25 02:08:58;;;;;;;;;3.00;2.00;;;;;20.25;100.00;101382.91;2091935;28;46489;-59
2023/09/25 02:09:59;;;;;;;;;2.33;2.00;;;;;20.27;100.00;101380.13;2078590;28;46479;-59
2023/09/25 02:10:59;;;;;;;;;1.00;1.00;;;;;20.27;100.00;101381.00;2076320;28;46448;-60
2023/09/25 02:11:59;;;;;;;;;2.67;2.67;;;;;20.26;100.00;101387.34;2092247;28;46404;-59
2023/09/25 02:13:00;;;;;;;;;5.75;3.75;;;;;20.27;100.00;101380.13;2089657;28;46306;-59
2023/09/25 02:14:01;;;;;;;;;5.67;4.67;;;;;20.26;100.00;101378.41;2093785;28;46320;-59
2023/09/25 02:15:05;;;;;;;;;4.50;4.50;;;;;20.37;100.00;101375.16;2087137;28;46647;-59
2023/09/25 02:16:06;;;;;;;;;3.00;3.00;;;;;20.37;100.00;101373.31;2088294;28;46744;-59
2023/09/25 02:17:06;;;;;;;;;1.67;1.67;;;;;20.40;100.00;101377.69;2081088;28;46339;-58
2023/09/25 02:18:07;;;;;;;;;4.67;3.33;;;;;20.44;100.00;101374.78;2079850;28;46153;-59
2023/09/25 02:19:09;;;;;;;;;2.50;2.00;;;;;20.35;100.00;101377.94;2093309;28;47470;-59
2023/09/25 02:20:20;;;;;;;;;4.67;3.33;;;;;20.39;100.00;101375.94;2091381;28;46657;-58
2023/09/25 02:21:21;;;;;;;;;4.00;4.00;;;;;20.41;100.00;101384.81;2095791;28;46967;-58
2023/09/25 02:22:21;;;;;;;;;2.67;2.67;;;;;20.42;100.00;101378.50;2089574;28;46634;-55
2023/09/25 02:23:21;;;;;;;;;3.00;3.00;;;;;20.32;100.00;101375.38;2095114;28;46729;-58
2023/09/25 02:24:22;;;;;;;;;3.00;3.00;;;;;20.28;100.00;101377.38;2096034;28;45738;-58
2023/09/25 02:25:22;;;;;;;;;4.00;4.00;;;;;20.27;100.00;101380.13;2091515;28;46451;-58
2023/09/25 02:26:22;;;;;;;;;3.00;3.00;;;;;20.25;100.00;101380.22;2093110;28;46956;-59
2023/09/25 02:27:23;;;;;;;;;2.33;2.33;;;;;20.23;100.00;101386.66;2078278;28;46676;-59
2023/09/25 02:28:23;;;;;;;;;3.00;3.00;;;;;20.22;100.00;101380.38;2072968;28;46704;-59
2023/09/25 02:29:23;;;;;;;;;1.00;0.00;;;;;20.20;100.00;101379.59;2086927;28;46194;-59
2023/09/25 02:30:24;;;;;;;;;4.00;2.00;;;;;20.21;100.00;101381.34;2082746;28;46693;-59
2023/09/25 02:31:24;;;;;;;;;2.33;2.33;;;;;20.21;100.00;101381.34;2094868;28;47279;-59
2023/09/25 02:32:24;;;;;;;;;3.00;3.00;;;;;20.21;100.00;101381.34;2095674;28;46201;-60
2023/09/25 02:33:25;;;;;;;;;4.33;2.33;;;;;20.19;100.00;101380.53;2092041;28;46349;-59
2023/09/25 02:34:25;;;;;;;;;4.00;4.00;;;;;20.18;100.00;101384.16;2084105;28;46284;-60
2023/09/25 02:35:25;;;;;;;;;5.00;3.00;;;;;20.18;100.00;101383.28;2092656;27;46837;-59
2023/09/25 02:36:26;;;;;;;;;4.33;3.00;;;;;20.16;100.00;101383.38;2113273;27;45876;-59
2023/09/25 02:37:29;;;;;;;;;4.00;3.75;;;;;20.14;100.00;101384.41;2113728;27;46251;-59
2023/09/25 02:38:29;;;;;;;;;3.75;2.75;;;;;20.13;100.00;101388.06;2112983;27;46493;-59
2023/09/25 02:39:30;;;;;;;;;2.00;2.00;;;;;20.11;100.00;101388.16;2113185;27;46821;-60
2023/09/25 02:40:30;;;;;;;;;4.00;2.00;;;;;20.12;100.00;101384.50;2113673;27;46187;-59
2023/09/25 02:41:30;;;;;;;;;3.00;1.67;;;;;20.12;100.00;101384.50;2113754;27;46554;-59
2023/09/25 02:42:30;;;;;;;;;4.00;3.00;;;;;20.11;100.00;101379.19;2108914;27;46185;-59
2023/09/25 02:43:31;;;;;;;;;4.25;2.25;;;;;20.09;100.00;101376.56;2105233;27;46330;-57
2023/09/25 02:44:31;;;;;;;;;4.75;3.00;;;;;20.11;100.00;101377.38;2113190;27;46798;-58
2023/09/25 02:45:32;;;;;;;;;2.33;2.33;;;;;20.12;100.00;101379.09;2111620;27;46605;-59
2023/09/25 02:46:32;;;;;;;;;1.00;1.00;;;;;20.13;100.00;101374.59;2112604;27;46466;-58
2023/09/25 02:47:33;;;;;;;;;2.33;2.00;;;;;20.12;100.00;101379.09;2111902;27;46802;-59
2023/09/25 02:48:33;;;;;;;;;2.33;2.00;;;;;20.11;100.00;101377.38;2112591;27;47152;-59
2023/09/25 02:49:33;;;;;;;;;2.00;1.00;;;;;20.11;100.00;101377.38;2117505;27;46272;-60
2023/09/25 02:50:34;;;;;;;;;2.25;2.00;;;;;20.11;100.00;101379.19;2108618;27;46357;-60
2023/09/25 02:51:34;;;;;;;;;2.00;2.00;;;;;20.11;100.00;101376.50;2104977;28;46267;-60
2023/09/25 02:52:35;;;;;;;;;2.50;2.50;;;;;20.12;100.00;101371.03;2113201;27;46193;-60
2023/09/25 02:53:35;;;;;;;;;2.00;2.00;;;;;20.10;100.00;101370.22;2104184;28;46202;-60
2023/09/25 02:54:35;;;;;;;;;2.33;2.33;;;;;20.10;100.00;101372.06;2104502;28;46248;-60
2023/09/25 02:55:36;;;;;;;;;1.75;1.75;;;;;20.06;100.00;101370.44;2113862;27;46385;-60
2023/09/25 02:56:36;;;;;;;;;3.00;3.00;;;;;20.04;100.00;101365.13;2113253;27;46140;-61
2023/09/25 02:57:36;;;;;;;;;1.50;1.50;;;;;19.97;100.00;101366.41;2114175;27;46783;-61
2023/09/25 02:58:37;;;;;;;;;2.00;2.00;;;;;19.93;100.00;101365.69;2113364;27;46610;-61
2023/09/25 02:59:38;;;;;;;;;2.00;2.00;;;;;20.00;100.00;101366.25;2113587;27;46969;-59
2023/09/25 03:00:38;;;;;;;;;1.60;1.60;;;;;20.03;100.00;101368.78;2104221;28;46309;-61
2023/09/25 03:01:39;;;;;;;;;2.67;2.67;;;;;20.03;100.00;101370.59;2101260;28;46713;-61
2023/09/25 03:02:39;;;;;;;;;1.33;1.33;;;;;20.03;100.00;101366.09;2110547;27;46156;-59
2023/09/25 03:03:40;;;;;;;;;2.25;2.00;;;;;20.04;100.00;101375.03;2114140;27;46456;-59
2023/09/25 03:04:41;;;;;;;;;3.80;2.80;;;;;20.03;100.00;101376.88;2118222;27;46563;-58
2023/09/25 03:05:41;;;;;;;;;3.75;3.75;;;;;20.05;100.00;101383.03;2108477;27;46794;-59
2023/09/25 03:06:42;;;;;;;;;3.00;2.00;;;;;20.05;100.00;101380.34;2113416;27;46513;-60
2023/09/25 03:07:42;;;;;;;;;0.75;0.75;;;;;20.03;100.00;101378.69;2113122;27;46564;-59
2023/09/25 03:08:42;;;;;;;;;1.67;1.00;;;;;20.00;100.00;101385.13;2113210;27;46178;-60
2023/09/25 03:09:43;;;;;;;;;2.00;2.00;;;;;19.98;100.00;101378.94;2113140;27;46254;-60
2023/09/25 03:10:43;;;;;;;;;3.33;3.33;;;;;19.97;100.00;101378.06;2112949;27;47315;-60
2023/09/25 03:11:43;;;;;;;;;4.50;4.50;;;;;19.98;100.00;101379.81;2112827;27;46250;-60
2023/09/25 03:12:43;;;;;;;;;3.25;2.00;;;;;20.00;100.00;101385.13;2110420;27;46139;-59
2023/09/25 03:13:44;;;;;;;;;1.00;1.00;;;;;20.00;100.00;101385.13;2104008;27;46397;-60
2023/09/25 03:14:44;;;;;;;;;2.00;2.00;;;;;20.00;100.00;101385.13;2104192;28;46266;-59
2023/09/25 03:15:44;;;;;;;;;4.00;4.00;;;;;20.01;100.00;101380.59;2107160;27;46237;-59
2023/09/25 03:16:46;;;;;;;;;2.25;2.25;;;;;20.00;100.00;101377.03;2101142;27;46556;-58
2023/09/25 03:17:47;;;;;;;;;3.20;2.80;;;;;20.02;100.00;101374.25;2103781;27;46573;-57
2023/09/25 03:18:47;;;;;;;;;2.75;2.75;;;;;20.03;100.00;101382.25;2104879;27;46447;-58
2023/09/25 03:19:50;;;;;;;;;3.00;2.00;;;;;20.04;100.00;101380.44;2103357;28;46768;-57
2023/09/25 03:20:51;;;;;;;;;1.75;1.75;;;;;20.04;100.00;101380.44;2096844;28;46542;-59
2023/09/25 03:21:51;;;;;;;;;4.00;1.00;;;;;20.05;100.00;101384.88;2103569;28;45581;-59
2023/09/25 03:22:52;;;;;;;;;2.00;2.00;;;;;20.04;100.00;101386.69;2102717;28;46681;-58
2023/09/25 03:23:52;;;;;;;;;2.60;2.60;;;;;20.03;100.00;101384.94;2102785;27;46829;-59
2023/09/25 03:24:53;;;;;;;;;2.00;2.00;;;;;20.02;100.00;101391.28;2105007;28;46825;-58
2023/09/25 03:25:53;;;;;;;;;2.75;2.75;;;;;20.00;100.00;101385.13;2104591;27;46608;-59
2023/09/25 03:26:55;;;;;;;;;2.00;2.00;;;;;19.98;100.00;101385.19;2103762;27;46780;-59
2023/09/25 03:27:55;;;;;;;;;2.00;1.20;;;;;19.95;100.00;101385.34;2112640;27;46445;-57
2023/09/25 03:28:56;;;;;;;;;3.25;3.25;;;;;19.96;100.00;101394.31;2106004;27;46154;-59
2023/09/25 03:29:56;;;;;;;;;2.50;1.25;;;;;19.96;100.00;101392.50;2104325;28;46324;-57
2023/09/25 03:30:56;;;;;;;;;1.67;1.67;;;;;19.95;100.00;101396.13;2104742;27;46735;-59
2023/09/25 03:31:57;;;;;;;;;2.75;2.50;;;;;19.96;100.00;101397.00;2103312;27;46545;-59
2023/09/25 03:32:57;;;;;;;;;3.75;3.75;;;;;19.96;100.00;101397.00;2098887;27;46432;-59
2023/09/25 03:33:58;;;;;;;;;2.50;2.50;;;;;19.94;100.00;101399.75;2103727;28;46757;-59
2023/09/25 03:34:59;;;;;;;;;3.75;3.00;;;;;19.95;100.00;101395.25;2107152;27;46524;-57
2023/09/25 03:35:59;;;;;;;;;2.00;2.00;;;;;19.92;100.00;101400.78;2103360;27;45149;-59
2023/09/25 03:37:00;;;;;;;;;3.00;2.00;;;;;19.92;100.00;101406.16;2102541;27;46591;-59
2023/09/25 03:38:00;;;;;;;;;3.00;2.00;;;;;19.92;100.00;101398.97;2104477;27;46847;-59
2023/09/25 03:39:00;;;;;;;;;3.00;3.00;;;;;19.92;100.00;101398.09;2105103;27;46654;-58
2023/09/25 03:40:07;;;;;;;;;3.00;3.00;;;;;19.93;100.00;101399.81;2114438;27;46622;-58
2023/09/25 03:41:07;;;;;;;;;1.50;1.50;;;;;19.91;100.00;101402.59;2111955;27;46570;-59
2023/09/25 03:42:07;;;;;;;;;2.67;2.67;;;;;19.92;100.00;101398.97;2106297;27;46611;-59
2023/09/25 03:43:08;;;;;;;;;3.25;2.25;;;;;19.92;100.00;101400.78;2105529;27;46676;-59
2023/09/25 03:44:08;;;;;;;;;2.50;2.50;;;;;19.88;100.00;101409.97;2103027;27;46757;-59
2023/09/25 03:45:09;;;;;;;;;3.00;3.00;;;;;19.84;100.00;101403.88;2107421;27;46740;-59
2023/09/25 03:46:09;;;;;;;;;1.00;1.00;;;;;19.84;100.00;101408.38;2106493;27;45967;-62
2023/09/25 03:47:09;;;;;;;;;2.00;2.00;;;;;19.84;100.00;101401.19;2106311;27;46084;-60
2023/09/25 03:48:10;;;;;;;;;2.75;2.75;;;;;19.84;100.00;101405.69;2106202;27;46341;-60
2023/09/25 03:49:10;;;;;;;;;2.00;2.00;;;;;19.83;100.00;101410.22;2106707;27;46465;-60
2023/09/25 03:50:10;;;;;;;;;2.00;1.00;;;;;19.84;100.00;101403.88;2105957;27;46590;-60
2023/09/25 03:51:11;;;;;;;;;4.00;3.00;;;;;19.86;100.00;101401.09;2103007;28;46676;-60
2023/09/25 03:52:12;;;;;;;;;1.75;1.75;;;;;19.81;100.00;101403.13;2114235;27;46117;-59
2023/09/25 03:53:12;;;;;;;;;4.50;3.00;;;;;19.84;100.00;101411.94;2114163;27;46654;-59
2023/09/25 03:54:12;;;;;;;;;2.50;2.50;;;;;19.88;100.00;101408.16;2106436;27;46740;-60
2023/09/25 03:55:13;;;;;;;;;0.00;0.00;;;;;19.88;100.00;101408.16;2099436;27;46897;-59
2023/09/25 03:56:13;;;;;;;;;3.00;3.00;;;;;19.89;100.00;101401.81;2103419;28;46684;-59
2023/09/25 03:57:13;;;;;;;;;3.00;3.00;;;;;19.89;100.00;101407.19;2105913;27;46522;-59
2023/09/25 03:58:14;;;;;;;;;2.00;2.00;;;;;19.87;100.00;101406.41;2106726;27;45903;-59
2023/09/25 03:59:14;;;;;;;;;4.00;2.25;;;;;19.87;100.00;101395.63;2106354;27;46206;-59
2023/09/25 04:00:15;;;;;;;;;2.00;2.00;;;;;19.86;100.00;101395.72;2106268;28;45850;-59
2023/09/25 04:01:15;;;;;;;;;2.00;2.00;;;;;19.84;100.00;101397.63;2101073;27;46829;-59
2023/09/25 04:02:16;;;;;;;;;2.00;2.00;;;;;19.82;100.00;101394.09;2103657;28;46518;-59
2023/09/25 04:03:16;;;;;;;;;2.33;2.33;;;;;19.84;100.00;101392.22;2105998;27;46579;-57
2023/09/25 04:04:17;;;;;;;;;1.33;1.33;;;;;19.82;100.00;101396.78;2105421;27;46153;-59
2023/09/25 04:05:17;;;;;;;;;3.00;3.00;;;;;19.78;100.00;101401.47;2108504;27;46941;-58
2023/09/25 04:06:18;;;;;;;;;1.00;1.00;;;;;19.75;100.00;101401.63;2103684;27;47036;-58
2023/09/25 04:07:18;;;;;;;;;2.33;1.67;;;;;19.74;100.00;101409.78;2106130;27;46431;-59
2023/09/25 04:08:18;;;;;;;;;2.00;2.00;;;;;19.74;100.00;101409.78;2106199;27;46222;-59
2023/09/25 04:09:20;;;;;;;;;4.00;3.00;;;;;19.72;100.00;101420.63;2105196;28;46810;-58
2023/09/25 04:10:21;;;;;;;;;1.50;1.50;;;;;19.74;100.00;101410.66;2105739;27;46445;-59
2023/09/25 04:11:22;;;;;;;;;2.25;2.25;;;;;19.73;100.00;101414.28;2105554;28;45161;-60
2023/09/25 04:12:22;;;;;;;;;3.00;3.00;;;;;19.72;100.00;101411.69;2106027;27;46615;-59
2023/09/25 04:13:22;;;;;;;;;3.00;3.00;;;;;19.76;100.00;101410.56;2105744;27;46823;-58
2023/09/25 04:14:23;;;;;;;;;3.67;3.67;;;;;19.77;100.00;101406.94;2104893;27;46793;-61
2023/09/25 04:15:24;;;;;;;;;2.33;2.33;;;;;19.78;100.00;101414.94;2114545;27;46148;-59
2023/09/25 04:16:27;;;;;;;;;2.75;2.75;;;;;19.79;100.00;101415.81;2109752;27;46489;-60
2023/09/25 04:17:28;;;;;;;;;4.00;2.25;;;;;19.80;100.00;101418.41;2109804;27;46407;-61
2023/09/25 04:18:29;;;;;;;;;4.00;2.67;;;;;19.81;100.00;101417.47;2114643;27;45163;-60
2023/09/25 04:19:30;;;;;;;;;1.00;1.00;;;;;19.81;100.00;101424.66;2111101;27;46406;-59
2023/09/25 04:20:32;;;;;;;;;3.00;3.00;;;;;19.81;100.00;101417.47;2114386;27;46746;-60
2023/09/25 04:21:32;;;;;;;;;3.00;3.00;;;;;19.81;100.00;101420.16;2105447;28;46472;-59
2023/09/25 04:22:34;;;;;;;;;1.33;1.33;;;;;19.82;100.00;101418.34;2103055;28;46176;-57
2023/09/25 04:23:38;;;;;;;;;2.00;2.00;;;;;19.82;100.00;101415.66;2111910;27;46132;-59
2023/09/25 04:24:38;;;;;;;;;1.67;1.67;;;;;19.85;100.00;101420.91;2114681;27;46295;-61
2023/09/25 04:25:39;;;;;;;;;5.00;4.00;;;;;19.85;100.00;101416.38;2105680;28;46293;-60
2023/09/25 04:26:42;;;;;;;;;3.67;3.67;;;;;19.85;100.00;101413.69;2104176;27;46603;-59
2023/09/25 04:27:42;;;;;;;;;2.00;2.00;;;;;19.88;100.00;101420.75;2113937;27;46279;-60
2023/09/25 04:28:43;;;;;;;;;5.67;4.00;;;;;19.89;100.00;101417.09;2113332;27;46531;-58
2023/09/25 04:29:44;;;;;;;;;4.33;4.00;;;;;19.88;100.00;101420.75;2114552;27;46942;-60
2023/09/25 04:30:44;;;;;;;;;7.00;4.00;;;;;19.88;100.00;101416.22;2114877;27;46582;-59
2023/09/25 04:31:46;;;;;;;;;5.00;4.00;;;;;19.89;100.00;101422.50;2109556;27;46574;-61
2023/09/25 04:32:49;;;;;;;;;1.60;1.60;;;;;19.89;100.00;101414.41;2114485;27;46616;-59
2023/09/25 04:33:50;;;;;;;;;3.00;3.00;;;;;19.88;100.00;101421.63;2111373;27;46497;-57
2023/09/25 04:34:50;;;;;;;;;3.50;3.00;;;;;19.89;100.00;101430.56;2114159;27;46165;-60
2023/09/25 04:35:54;;;;;;;;;4.67;4.00;;;;;19.89;100.00;101423.34;2111769;27;46703;-58
2023/09/25 04:36:55;;;;;;;;;3.80;2.60;;;;;19.87;100.00;101424.38;2112226;27;46418;-59
2023/09/25 04:37:55;;;;;;;;;2.67;2.67;;;;;19.87;100.00;101425.25;2113809;27;46275;-56
2023/09/25 04:38:56;;;;;;;;;4.33;4.33;;;;;19.87;100.00;101414.47;2114697;27;45929;-59
2023/09/25 04:39:57;;;;;;;;;2.00;2.00;;;;;19.86;100.00;101420.81;2099838;28;46439;-57